createdAt,value
2018-06-01T00:14:53.830Z,97.97
2018-06-01T03:45:53.717Z,100.00
2018-06-01T03:48:21.982Z,100.00
2018-06-01T03:50:51.059Z,100.00
2018-06-01T03:53:20.097Z,100.00
2018-06-01T03:55:48.381Z,100.00
2018-06-01T03:58:16.671Z,100.00
2018-06-01T04:00:44.962Z,100.00
2018-06-01T04:03:13.255Z,100.00
2018-06-01T04:05:43.316Z,100.00
2018-06-01T04:08:11.577Z,100.00
2018-06-01T04:10:39.874Z,100.00
2018-06-01T04:13:08.177Z,100.00
2018-06-01T04:15:36.638Z,100.00
2018-06-01T04:18:04.913Z,100.00
2018-06-01T04:20:33.313Z,100.00
2018-06-01T04:23:01.585Z,100.00
2018-06-01T04:25:29.907Z,100.00
2018-06-01T04:27:58.238Z,100.00
2018-06-01T04:30:26.511Z,100.00
2018-06-01T04:32:54.904Z,100.00
2018-06-01T04:35:23.301Z,100.00
2018-06-01T04:37:51.574Z,100.00
2018-06-01T04:40:19.869Z,100.00
2018-06-01T04:42:48.153Z,100.00
2018-06-01T04:45:16.433Z,100.00
2018-06-01T04:47:45.201Z,100.00
2018-06-01T04:50:14.555Z,100.00
2018-06-01T04:52:42.870Z,100.00
2018-06-01T04:55:11.545Z,100.00
2018-06-01T04:57:39.825Z,100.00
2018-06-01T05:00:08.126Z,100.00
2018-06-01T05:02:36.432Z,100.00
2018-06-01T05:05:04.730Z,100.00
2018-06-01T05:07:32.987Z,100.00
2018-06-01T05:10:01.264Z,100.00
2018-06-01T05:12:29.561Z,100.00
2018-06-01T05:14:57.856Z,100.00
2018-06-01T05:17:26.159Z,100.00
2018-06-01T05:19:54.426Z,100.00
2018-06-01T05:22:22.706Z,100.00
2018-06-01T05:24:50.999Z,100.00
2018-06-01T05:27:19.276Z,100.00
2018-06-01T05:29:47.969Z,100.00
2018-06-01T05:32:16.242Z,100.00
2018-06-01T05:34:44.524Z,100.00
2018-06-01T05:37:12.836Z,100.00
2018-06-01T05:39:41.888Z,100.00
2018-06-01T05:42:10.181Z,100.00
2018-06-01T05:44:38.843Z,100.00
2018-06-01T05:47:07.138Z,100.00
2018-06-01T05:49:35.413Z,100.00
2018-06-01T05:52:03.692Z,100.00
2018-06-01T05:54:32.004Z,100.00
2018-06-01T05:57:01.179Z,100.00
2018-06-01T05:59:29.437Z,100.00
2018-06-01T06:01:57.724Z,100.00
2018-06-01T06:04:25.988Z,99.83
2018-06-01T06:06:54.261Z,99.72
2018-06-01T06:09:22.548Z,99.25
2018-06-01T06:11:51.575Z,100.00
2018-06-01T06:14:19.861Z,100.00
2018-06-01T06:16:49.018Z,100.00
2018-06-01T06:19:17.334Z,100.00
2018-06-01T06:21:45.659Z,100.00
2018-06-01T06:24:13.937Z,100.00
2018-06-01T06:26:42.272Z,100.00
2018-06-01T06:29:10.540Z,99.60
2018-06-01T06:31:38.805Z,99.83
2018-06-01T06:34:07.133Z,100.00
2018-06-01T06:36:35.404Z,99.81
2018-06-01T06:39:04.458Z,99.77
2018-06-01T06:41:35.881Z,100.00
2018-06-01T06:44:04.172Z,100.00
2018-06-01T06:46:32.447Z,100.00
2018-06-01T06:49:00.760Z,100.00
2018-06-01T06:51:29.036Z,100.00
2018-06-01T06:53:57.344Z,100.00
2018-06-01T06:56:25.627Z,100.00
2018-06-01T06:58:53.873Z,100.00
2018-06-01T07:01:22.167Z,100.00
2018-06-01T07:03:52.540Z,99.69
2018-06-01T07:06:20.874Z,99.06
2018-06-01T07:08:49.918Z,98.79
2018-06-01T07:11:18.186Z,98.33
2018-06-01T07:13:46.449Z,99.72
2018-06-01T07:16:14.767Z,99.35
2018-06-01T07:18:43.094Z,99.86
2018-06-01T07:21:12.278Z,100.00
2018-06-01T07:23:41.317Z,99.33
2018-06-01T07:26:09.614Z,98.90
2018-06-01T07:28:37.865Z,99.19
2018-06-01T07:31:06.169Z,97.72
2018-06-01T07:33:34.452Z,98.53
2018-06-01T07:36:02.743Z,97.88
2018-06-01T07:38:31.015Z,97.09
2018-06-01T07:40:59.296Z,96.70
2018-06-01T07:43:28.501Z,97.46
2018-06-01T07:45:56.784Z,98.12
2018-06-01T07:48:25.060Z,95.86
2018-06-01T07:50:53.412Z,95.90
2018-06-01T07:53:21.701Z,96.00
2018-06-01T07:55:49.986Z,97.59
2018-06-01T07:58:18.256Z,98.01
2018-06-01T08:00:46.528Z,97.68
2018-06-01T08:03:14.797Z,96.09
2018-06-01T08:05:43.073Z,95.43
2018-06-01T08:08:11.358Z,94.70
2018-06-01T08:10:39.643Z,96.96
2018-06-01T08:13:07.916Z,94.44
2018-06-01T08:15:36.223Z,96.57
2018-06-01T08:18:04.503Z,95.47
2018-06-01T08:20:33.594Z,94.46
2018-06-01T08:23:02.252Z,96.16
2018-06-01T08:25:30.504Z,93.87
2018-06-01T08:27:59.550Z,93.04
2018-06-01T08:30:27.824Z,93.91
2018-06-01T08:32:56.112Z,92.12
2018-06-01T08:35:24.362Z,92.61
2018-06-01T08:37:52.649Z,93.17
2018-06-01T08:40:20.935Z,93.73
2018-06-01T08:42:49.226Z,95.78
2018-06-01T08:45:17.519Z,94.88
2018-06-01T08:47:46.569Z,93.87
2018-06-01T08:50:14.844Z,93.59
2018-06-01T08:52:43.119Z,92.80
2018-06-01T08:55:11.375Z,92.75
2018-06-01T08:57:39.725Z,92.65
2018-06-01T09:00:08.769Z,92.81
2018-06-01T09:02:37.806Z,94.73
2018-06-01T09:05:06.895Z,93.93
2018-06-01T09:07:35.168Z,93.01
2018-06-01T09:10:03.511Z,92.40
2018-06-01T09:12:31.740Z,93.31
2018-06-01T09:15:00.781Z,92.63
2018-06-01T09:17:29.081Z,92.27
2018-06-01T09:19:57.356Z,94.62
2018-06-01T09:22:25.725Z,92.07
2018-06-01T09:24:54.004Z,91.19
2018-06-01T09:27:22.286Z,91.32
2018-06-01T09:29:50.605Z,91.25
2018-06-01T09:32:19.658Z,93.58
2018-06-01T09:34:47.980Z,94.29
2018-06-01T09:37:17.014Z,93.90
2018-06-01T09:39:45.286Z,91.80
2018-06-01T09:42:13.615Z,89.85
2018-06-01T09:44:41.915Z,90.04
2018-06-01T09:47:10.223Z,91.80
2018-06-01T09:49:38.492Z,90.75
2018-06-01T09:52:06.771Z,89.25
2018-06-01T09:54:35.060Z,88.70
2018-06-01T09:57:03.319Z,88.44
2018-06-01T09:59:31.610Z,89.20
2018-06-01T10:01:59.891Z,88.01
2018-06-01T10:04:28.148Z,88.88
2018-06-01T10:06:56.437Z,87.37
2018-06-01T10:09:25.474Z,86.52
2018-06-01T10:11:53.702Z,85.59
2018-06-01T10:14:22.001Z,85.74
2018-06-01T10:16:50.278Z,85.01
2018-06-01T10:19:18.556Z,86.14
2018-06-01T10:21:46.916Z,85.17
2018-06-01T10:24:15.207Z,85.97
2018-06-01T10:26:44.363Z,85.25
2018-06-01T10:29:12.688Z,83.41
2018-06-01T10:31:40.978Z,85.07
2018-06-01T10:34:09.258Z,84.87
2018-06-01T10:36:37.560Z,83.37
2018-06-01T10:39:06.648Z,83.27
2018-06-01T10:41:34.969Z,80.36
2018-06-01T10:44:04.103Z,82.57
2018-06-01T10:46:32.377Z,83.14
2018-06-01T10:49:00.712Z,83.25
2018-06-01T10:51:29.781Z,81.09
2018-06-01T10:53:58.100Z,83.44
2018-06-01T10:56:26.434Z,85.27
2018-06-01T10:58:54.761Z,84.28
2018-06-01T11:01:23.046Z,86.69
2018-06-01T11:03:51.346Z,83.68
2018-06-01T11:06:19.644Z,84.71
2018-06-01T11:08:47.921Z,85.14
2018-06-01T11:11:16.586Z,86.96
2018-06-01T11:13:44.893Z,84.66
2018-06-01T11:16:13.181Z,83.39
2018-06-01T11:18:41.483Z,83.01
2018-06-01T11:21:10.524Z,82.59
2018-06-01T11:23:38.854Z,80.54
2018-06-01T11:26:07.899Z,80.97
2018-06-01T11:28:36.155Z,83.44
2018-06-01T11:31:04.425Z,84.26
2018-06-01T11:33:32.719Z,83.41
2018-06-01T11:36:01.428Z,81.06
2018-06-01T11:38:29.724Z,80.50
2018-06-01T11:40:58.781Z,81.13
2018-06-01T11:43:27.071Z,81.53
2018-06-01T11:45:55.361Z,80.14
2018-06-01T11:48:23.649Z,81.12
2018-06-01T11:50:51.927Z,79.82
2018-06-01T11:53:20.218Z,80.87
2018-06-01T11:55:48.508Z,78.41
2018-06-01T11:58:16.799Z,78.04
2018-06-01T12:00:45.059Z,78.79
2018-06-01T12:03:13.377Z,80.00
2018-06-01T12:05:41.651Z,80.09
2018-06-01T12:08:09.948Z,82.56
2018-06-01T12:10:38.201Z,82.01
2018-06-01T12:13:06.476Z,80.82
2018-06-01T12:15:34.779Z,80.73
2018-06-01T12:18:03.054Z,79.88
2018-06-01T12:20:31.364Z,79.41
2018-06-01T12:22:59.639Z,79.73
2018-06-01T12:25:27.920Z,78.90
2018-06-01T12:27:57.423Z,78.51
2018-06-01T12:30:25.703Z,80.45
2018-06-01T12:32:53.977Z,78.38
2018-06-01T12:35:22.278Z,79.12
2018-06-01T12:37:51.370Z,78.44
2018-06-01T12:40:19.653Z,78.27
2018-06-01T12:42:47.923Z,78.68
2018-06-01T12:45:16.237Z,77.66
2018-06-01T12:47:44.506Z,78.27
2018-06-01T12:50:12.817Z,75.05
2018-06-01T12:52:41.099Z,75.02
2018-06-01T12:55:09.377Z,75.82
2018-06-01T12:57:37.690Z,77.96
2018-06-01T13:00:05.954Z,78.52
2018-06-01T13:02:34.262Z,76.84
2018-06-01T13:05:02.534Z,77.47
2018-06-01T13:07:30.816Z,78.69
2018-06-01T13:09:59.106Z,76.52
2018-06-01T13:12:27.386Z,76.67
2018-06-01T13:14:56.451Z,80.17
2018-06-01T13:17:24.703Z,82.24
2018-06-01T13:19:52.968Z,80.39
2018-06-01T13:22:21.304Z,81.42
2018-06-01T13:24:49.587Z,83.81
2018-06-01T13:27:18.669Z,84.48
2018-06-01T13:29:46.995Z,84.64
2018-06-01T13:32:15.199Z,85.73
2018-06-01T13:34:43.492Z,89.96
2018-06-01T13:37:11.747Z,89.17
2018-06-01T13:39:40.034Z,92.13
2018-06-01T13:42:08.315Z,91.67
2018-06-01T13:44:36.596Z,93.08
2018-06-01T13:47:04.883Z,93.50
2018-06-01T13:49:33.156Z,92.42
2018-06-01T13:52:01.470Z,93.66
2018-06-01T13:54:30.501Z,95.68
2018-06-01T13:56:58.795Z,97.12
2018-06-01T13:59:27.114Z,97.48
2018-06-01T14:01:56.172Z,96.78
2018-06-01T14:04:24.477Z,95.11
2018-06-01T14:06:52.752Z,95.82
2018-06-01T14:09:21.085Z,97.06
2018-06-01T14:11:49.315Z,97.79
2018-06-01T14:14:17.585Z,96.69
2018-06-01T14:16:45.916Z,97.96
2018-06-01T14:19:14.227Z,96.02
2018-06-01T14:21:42.513Z,95.25
2018-06-01T14:24:10.813Z,92.80
2018-06-01T14:26:39.900Z,94.34
2018-06-01T14:29:08.191Z,95.38
2018-06-01T14:31:36.461Z,95.70
2018-06-01T14:34:04.753Z,96.79
2018-06-01T14:36:33.044Z,96.48
2018-06-01T14:39:01.324Z,96.48
2018-06-01T14:41:29.639Z,97.98
2018-06-01T14:43:57.908Z,97.86
2018-06-01T14:46:26.184Z,97.72
2018-06-01T14:48:54.488Z,98.41
2018-06-01T14:51:22.770Z,98.78
2018-06-01T14:53:51.060Z,98.86
2018-06-01T14:56:19.358Z,99.23
2018-06-01T14:58:48.433Z,99.95
2018-06-01T15:01:16.729Z,100.00
2018-06-01T15:03:45.762Z,100.00
2018-06-01T15:06:14.102Z,98.37
2018-06-01T15:08:43.149Z,99.82
2018-06-01T15:11:11.432Z,98.98
2018-06-01T15:13:39.720Z,96.75
2018-06-01T15:16:07.998Z,95.49
2018-06-01T15:18:36.290Z,94.00
2018-06-01T15:21:04.574Z,94.58
2018-06-01T15:23:33.621Z,93.68
2018-06-01T15:26:02.646Z,95.52
2018-06-01T15:28:31.057Z,94.63
2018-06-01T15:31:00.088Z,89.86
2018-06-01T15:33:28.364Z,91.48
2018-06-01T15:35:56.647Z,91.75
2018-06-01T15:38:24.900Z,89.96
2018-06-01T15:40:53.248Z,90.12
2018-06-01T15:43:21.516Z,91.01
2018-06-01T15:45:50.698Z,90.28
2018-06-01T15:48:18.965Z,83.66
2018-06-01T15:50:47.293Z,87.53
2018-06-01T15:53:15.568Z,84.36
2018-06-01T15:55:43.858Z,83.52
2018-06-01T15:58:12.924Z,75.64
2018-06-01T16:00:41.205Z,74.70
2018-06-01T16:03:09.497Z,76.96
2018-06-01T16:05:37.767Z,76.87
2018-06-01T16:08:06.063Z,80.28
2018-06-01T16:10:34.343Z,83.30
2018-06-01T16:13:02.613Z,81.30
2018-06-01T16:15:31.647Z,78.99
2018-06-01T16:17:59.941Z,77.86
2018-06-01T16:20:28.226Z,85.02
2018-06-01T16:22:56.507Z,80.35
2018-06-01T16:25:24.795Z,76.85
2018-06-01T16:27:53.078Z,75.08
2018-06-01T16:30:21.351Z,76.69
2018-06-01T16:32:49.628Z,75.73
2018-06-01T16:35:17.902Z,76.90
2018-06-01T16:37:46.179Z,75.33
2018-06-01T16:40:14.471Z,81.41
2018-06-01T16:42:42.766Z,82.26
2018-06-01T16:45:11.815Z,86.56
2018-06-01T16:47:40.100Z,87.69
2018-06-01T16:50:08.365Z,87.48
2018-06-01T16:52:36.676Z,87.86
2018-06-01T16:55:05.623Z,87.05
2018-06-01T16:57:33.906Z,85.10
2018-06-01T17:00:02.212Z,79.15
2018-06-01T17:02:30.748Z,77.21
2018-06-01T17:04:59.071Z,72.97
2018-06-01T17:07:27.378Z,71.92
2018-06-01T17:09:55.660Z,69.69
2018-06-01T17:12:23.963Z,70.28
2018-06-01T17:14:52.256Z,70.70
2018-06-01T17:17:20.556Z,70.85
2018-06-01T17:19:48.813Z,68.79
2018-06-01T17:22:17.110Z,68.33
2018-06-01T17:24:45.373Z,70.91
2018-06-01T17:27:13.664Z,71.51
2018-06-01T17:29:41.972Z,72.20
2018-06-01T17:32:10.297Z,75.40
2018-06-01T17:34:38.587Z,77.00
2018-06-01T17:37:06.876Z,78.05
2018-06-01T17:39:35.155Z,78.18
2018-06-01T17:42:03.441Z,77.57
2018-06-01T17:44:31.741Z,79.81
2018-06-01T17:47:01.251Z,81.24
2018-06-01T17:49:30.479Z,82.25
2018-06-01T17:51:58.761Z,82.93
2018-06-01T17:54:27.048Z,83.62
2018-06-01T17:56:55.337Z,85.85
2018-06-01T17:59:23.623Z,86.04
2018-06-01T18:01:53.290Z,87.29
2018-06-01T18:04:24.922Z,87.76
2018-06-01T18:06:55.017Z,89.81
2018-06-01T18:09:23.608Z,89.94
2018-06-01T18:11:52.961Z,91.40
2018-06-01T18:14:22.295Z,90.43
2018-06-01T18:16:50.618Z,91.88
2018-06-01T18:19:18.895Z,89.95
2018-06-01T18:21:47.186Z,90.28
2018-06-01T18:24:16.231Z,91.10
2018-06-01T18:26:44.542Z,91.48
2018-06-01T18:29:13.612Z,94.72
2018-06-01T18:31:41.881Z,95.77
2018-06-01T18:34:10.183Z,95.69
2018-06-01T18:36:38.468Z,95.75
2018-06-01T18:39:06.726Z,94.86
2018-06-01T18:41:35.051Z,95.90
2018-06-01T18:44:03.359Z,96.82
2018-06-01T18:46:32.388Z,97.51
2018-06-01T18:49:00.675Z,98.03
2018-06-01T18:51:28.949Z,98.33
2018-06-01T18:53:57.270Z,97.82
2018-06-01T18:56:25.541Z,96.93
2018-06-01T18:58:53.827Z,97.33
2018-06-01T19:01:23.098Z,98.45
2018-06-01T19:03:51.388Z,99.04
2018-06-01T19:06:20.477Z,99.38
2018-06-01T19:08:48.760Z,99.58
2018-06-01T19:11:17.091Z,99.34
2018-06-01T19:13:45.388Z,99.08
2018-06-01T19:16:13.701Z,99.20
2018-06-01T19:18:42.021Z,99.27
2018-06-01T19:21:10.309Z,99.09
2018-06-01T19:23:38.648Z,99.66
2018-06-01T19:26:06.932Z,99.48
2018-06-01T19:28:35.979Z,99.54
2018-06-01T19:31:04.288Z,100.00
2018-06-01T19:33:33.384Z,100.00
2018-06-01T19:36:01.694Z,99.92
2018-06-01T19:38:31.617Z,99.25
2018-06-01T19:40:59.903Z,99.11
2018-06-01T19:43:28.184Z,99.21
2018-06-01T19:45:56.483Z,99.81
2018-06-01T19:48:25.377Z,99.10
2018-06-01T19:50:53.683Z,99.11
2018-06-01T19:53:21.975Z,99.38
2018-06-01T19:55:50.250Z,99.38
2018-06-01T19:58:19.316Z,99.46
2018-06-01T20:00:47.641Z,99.59
2018-06-01T20:03:15.965Z,99.34
2018-06-01T20:05:44.261Z,99.48
2018-06-01T20:08:12.555Z,100.00
2018-06-01T20:10:40.835Z,100.00
2018-06-01T20:13:09.227Z,100.00
2018-06-01T20:15:37.481Z,100.00
2018-06-01T20:18:05.745Z,100.00
2018-06-01T20:20:34.042Z,99.88
2018-06-01T20:23:02.358Z,99.80
2018-06-01T20:25:30.643Z,100.00
2018-06-01T20:28:00.076Z,100.00
2018-06-01T20:30:28.351Z,100.00
2018-06-01T20:32:57.463Z,100.00
2018-06-01T20:35:25.767Z,100.00
2018-06-01T20:37:54.808Z,100.00
2018-06-01T20:40:23.095Z,100.00
2018-06-01T20:42:51.391Z,100.00
2018-06-01T20:45:19.709Z,100.00
2018-06-01T20:47:47.990Z,100.00
2018-06-01T20:50:16.275Z,100.00
2018-06-01T20:52:44.583Z,100.00
2018-06-01T20:55:12.894Z,100.00
2018-06-01T20:57:41.939Z,100.00
2018-06-01T21:00:10.221Z,100.00
2018-06-01T21:02:38.531Z,100.00
2018-06-01T21:05:06.836Z,100.00
2018-06-01T21:07:35.124Z,100.00
2018-06-01T21:10:04.555Z,100.00
2018-06-01T21:12:36.405Z,100.00
2018-06-01T21:15:04.681Z,100.00
2018-06-01T21:17:32.994Z,99.73
2018-06-01T21:20:01.255Z,100.00
2018-06-01T21:22:29.539Z,99.68
2018-06-01T21:24:57.846Z,99.22
2018-06-01T21:27:26.123Z,99.52
2018-06-01T21:29:54.465Z,99.34
2018-06-01T21:32:22.749Z,99.61
2018-06-01T21:34:51.033Z,99.80
2018-06-01T21:37:19.312Z,99.95
2018-06-01T21:39:47.574Z,100.00
2018-06-01T21:42:15.881Z,100.00
2018-06-01T21:44:44.163Z,99.57
2018-06-01T21:47:12.451Z,99.23
2018-06-01T21:49:40.755Z,99.12
2018-06-01T21:52:09.785Z,99.39
2018-06-01T21:54:38.100Z,99.75
2018-06-01T21:57:06.370Z,100.00
2018-06-01T21:59:34.651Z,99.68
2018-06-01T22:02:02.942Z,99.96
2018-06-01T22:04:31.219Z,100.00
2018-06-01T22:07:00.394Z,99.69
2018-06-01T22:09:29.490Z,99.70
2018-06-01T22:11:57.781Z,99.27
2018-06-01T22:14:27.608Z,99.39
2018-06-01T22:16:56.017Z,99.41
2018-06-01T22:19:24.273Z,99.26
2018-06-01T22:21:52.545Z,99.08
2018-06-01T22:24:20.829Z,98.91
2018-06-01T22:26:49.921Z,98.99
2018-06-01T22:29:18.193Z,98.95
2018-06-01T22:31:46.474Z,98.70
2018-06-01T22:34:14.786Z,99.31
2018-06-01T22:36:43.052Z,99.50
2018-06-01T22:39:12.126Z,99.85
2018-06-01T22:41:40.419Z,99.67
2018-06-01T22:44:08.692Z,99.32
2018-06-01T22:46:37.748Z,98.61
2018-06-01T22:49:05.999Z,98.58
2018-06-01T22:51:34.425Z,98.98
2018-06-01T22:54:02.712Z,98.92
2018-06-01T22:56:31.005Z,99.58
2018-06-01T22:59:00.052Z,99.91
2018-06-01T23:01:28.329Z,99.33
2018-06-01T23:03:56.972Z,98.77
2018-06-01T23:06:26.000Z,98.73
2018-06-01T23:08:54.305Z,99.39
2018-06-01T23:11:22.596Z,99.60
2018-06-01T23:13:50.857Z,100.00
2018-06-01T23:16:19.164Z,99.69
2018-06-01T23:18:47.477Z,98.91
2018-06-01T23:21:15.755Z,99.09
2018-06-01T23:23:44.072Z,100.00
2018-06-01T23:26:12.416Z,99.50
2018-06-01T23:28:40.679Z,100.00
2018-06-01T23:31:09.748Z,100.00
2018-06-01T23:33:38.072Z,99.03
2018-06-01T23:36:06.364Z,98.59
2018-06-01T23:38:34.657Z,98.82
2018-06-01T23:41:02.915Z,98.74
2018-06-01T23:43:31.194Z,98.66
2018-06-01T23:45:59.485Z,98.57
2018-06-01T23:48:27.768Z,98.85
2018-06-01T23:50:56.146Z,99.14
2018-06-01T23:53:24.425Z,98.87
2018-06-01T23:55:52.706Z,98.98
2018-06-01T23:58:20.986Z,98.85
